Time;durP1;ratioP1;P1;durP2;ratioP2;P2;SDS_P1;SDS_P2;PMS_P1;PMS_P2;Temp;Humidity;BMP_temperature;BMP_pressure;BME280_temperature;BME280_humidity;BME280_pressure;Samples;Min_cycle;Max_cycle;Signal;HPM_P1;HPM_P2
2021/07/28 00:01:38;;;;;;;10.43;9.43;;;20.60;99.90;;;;;;5073114;28;20250;-47
2021/07/28 00:04:06;;;;;;;11.52;10.32;;;20.50;99.90;;;;;;5073045;28;20626;-46
2021/07/28 00:06:36;;;;;;;10.65;9.65;;;20.50;99.90;;;;;;5073008;28;20215;-47
2021/07/28 00:09:04;;;;;;;10.23;9.23;;;20.40;99.90;;;;;;5072835;28;20371;-46
2021/07/28 00:11:32;;;;;;;11.43;10.43;;;20.40;99.90;;;;;;5072777;28;20297;-48
2021/07/28 00:14:00;;;;;;;10.43;9.35;;;20.40;99.90;;;;;;5072793;28;20207;-46
2021/07/28 00:16:28;;;;;;;10.80;9.80;;;20.40;99.90;;;;;;5072922;28;20211;-46
2021/07/28 00:19:03;;;;;;;10.40;9.55;;;20.40;99.90;;;;;;5072457;28;20337;-47
2021/07/28 00:24:18;;;;;;;9.85;8.85;;;20.40;99.90;;;;;;5072931;28;20307;-46
2021/07/28 00:26:46;;;;;;;9.70;8.63;;;20.30;99.90;;;;;;5072722;28;20211;-47
2021/07/28 00:29:14;;;;;;;10.25;9.27;;;20.30;99.90;;;;;;5072513;28;20705;-50
2021/07/28 00:31:42;;;;;;;8.35;7.70;;;20.30;99.90;;;;;;5072685;28;20242;-46
2021/07/28 00:34:09;;;;;;;8.95;8.15;;;20.40;99.90;;;;;;5072479;28;20313;-47
2021/07/28 00:36:37;;;;;;;9.35;7.82;;;20.30;99.90;;;;;;5072672;28;20207;-49
2021/07/28 00:39:05;;;;;;;9.43;7.82;;;20.30;99.90;;;;;;5072585;28;20227;-47
2021/07/28 00:41:34;;;;;;;8.65;7.88;;;20.30;99.90;;;;;;5072273;28;20620;-50
2021/07/28 00:44:02;;;;;;;9.52;8.68;;;20.30;99.90;;;;;;5072076;28;20207;-47
2021/07/28 00:46:30;;;;;;;9.57;8.75;;;20.30;99.90;;;;;;5072306;28;20211;-47
2021/07/28 00:48:59;;;;;;;9.40;8.45;;;20.30;99.90;;;;;;5072238;28;20340;-48
2021/07/28 00:51:27;;;;;;;8.77;7.95;;;20.30;99.90;;;;;;5072485;28;20302;-45
2021/07/28 00:53:55;;;;;;;8.32;7.53;;;20.30;99.90;;;;;;5072129;28;20302;-49
2021/07/28 00:56:23;;;;;;;8.65;7.85;;;20.30;99.90;;;;;;5072134;28;20222;-46
2021/07/28 00:58:53;;;;;;;8.88;8.13;;;20.30;99.90;;;;;;5072212;28;20214;-46
2021/07/28 01:01:21;;;;;;;9.93;8.93;;;20.30;99.90;;;;;;5072055;28;20257;-45
2021/07/28 01:03:49;;;;;;;9.80;8.57;;;20.20;99.90;;;;;;5072225;28;20207;-46
2021/07/28 01:06:17;;;;;;;9.30;8.45;;;20.10;99.90;;;;;;5072155;28;20352;-49
2021/07/28 01:08:44;;;;;;;8.90;8.10;;;20.10;99.90;;;;;;5072161;28;20298;-48
2021/07/28 01:11:13;;;;;;;9.45;7.88;;;20.00;99.90;;;;;;5072081;28;20293;-46
2021/07/28 01:13:41;;;;;;;8.88;8.10;;;19.90;99.90;;;;;;5071845;28;20207;-46
2021/07/28 01:16:13;;;;;;;8.73;8.02;;;19.80;99.90;;;;;;5072081;28;20222;-45
2021/07/28 01:18:42;;;;;;;8.77;8.00;;;19.80;99.90;;;;;;5071741;28;20725;-46
2021/07/28 01:21:12;;;;;;;8.05;7.35;;;19.70;99.90;;;;;;5071758;28;20322;-48
2021/07/28 01:23:42;;;;;;;8.77;7.95;;;19.70;99.90;;;;;;5071804;28;20650;-49
2021/07/28 01:26:10;;;;;;;9.20;8.40;;;19.70;99.90;;;;;;5071854;28;20253;-51
2021/07/28 01:28:38;;;;;;;11.05;8.75;;;19.70;99.90;;;;;;5072049;28;20529;-51
2021/07/28 01:31:09;;;;;;;10.13;9.30;;;19.70;99.90;;;;;;5071803;28;20207;-48
2021/07/28 01:33:38;;;;;;;9.20;8.38;;;19.60;99.90;;;;;;5071717;28;20225;-49
2021/07/28 01:36:07;;;;;;;8.30;7.60;;;19.70;99.90;;;;;;5071679;28;20302;-50
2021/07/28 01:38:35;;;;;;;8.77;7.95;;;19.70;99.90;;;;;;5071741;28;20575;-49
2021/07/28 01:41:06;;;;;;;8.27;7.47;;;19.70;99.90;;;;;;5071623;28;20223;-52
2021/07/28 01:43:36;;;;;;;8.65;7.78;;;19.70;99.90;;;;;;5071718;28;20757;-47
2021/07/28 01:46:05;;;;;;;8.85;8.05;;;19.70;99.90;;;;;;5071843;28;20303;-48
2021/07/28 01:48:33;;;;;;;7.95;7.13;;;19.70;99.90;;;;;;5071684;28;20211;-49
2021/07/28 01:51:02;;;;;;;9.63;8.73;;;19.70;99.90;;;;;;5071625;28;20203;-46
2021/07/28 01:53:30;;;;;;;9.13;8.23;;;19.70;99.90;;;;;;5071984;28;20745;-47
2021/07/28 01:55:59;;;;;;;8.93;8.07;;;19.70;99.90;;;;;;5073273;28;20275;-46
2021/07/28 01:58:29;;;;;;;9.23;8.43;;;19.70;99.90;;;;;;5075406;28;20310;-50
2021/07/28 02:00:57;;;;;;;9.07;8.27;;;19.70;99.90;;;;;;5075154;28;20258;-48
2021/07/28 02:03:25;;;;;;;9.38;8.40;;;19.70;99.90;;;;;;5075203;28;20674;-47
2021/07/28 02:05:53;;;;;;;8.90;8.20;;;19.70;99.90;;;;;;5075031;28;20217;-48
2021/07/28 02:08:21;;;;;;;8.80;7.90;;;19.70;99.90;;;;;;5075235;28;20257;-52
2021/07/28 02:10:51;;;;;;;8.88;8.18;;;19.70;99.90;;;;;;5074539;28;20298;-45
2021/07/28 02:13:21;;;;;;;9.45;8.55;;;19.60;99.90;;;;;;5075084;28;20307;-45
2021/07/28 02:15:50;;;;;;;9.85;8.05;;;19.60;99.90;;;;;;5075103;28;20298;-45
2021/07/28 02:18:18;;;;;;;8.73;8.02;;;19.60;99.90;;;;;;5075106;28;20274;-46
2021/07/28 02:20:46;;;;;;;8.82;8.02;;;19.60;99.90;;;;;;5075087;28;20231;-47
2021/07/28 02:23:14;;;;;;;8.88;8.07;;;19.60;99.90;;;;;;5074896;28;20298;-46
2021/07/28 02:25:41;;;;;;;9.48;8.10;;;19.50;99.90;;;;;;5074786;28;20247;-48
2021/07/28 02:28:09;;;;;;;9.77;8.27;;;19.50;99.90;;;;;;5074866;28;20462;-47
2021/07/28 02:30:37;;;;;;;9.15;8.35;;;19.50;99.90;;;;;;5074789;28;20229;-45
2021/07/28 02:33:10;;;;;;;9.63;8.23;;;19.50;99.90;;;;;;5074860;28;20207;-47
2021/07/28 02:35:38;;;;;;;8.55;7.75;;;19.50;99.90;;;;;;5074930;28;20230;-45
2021/07/28 02:38:06;;;;;;;10.02;8.70;;;19.50;99.90;;;;;;5074652;28;20250;-46
2021/07/28 02:40:35;;;;;;;9.23;7.78;;;19.50;99.90;;;;;;5074548;28;20230;-47
2021/07/28 02:43:02;;;;;;;10.35;8.75;;;19.50;99.90;;;;;;5074710;28;20217;-50
2021/07/28 02:45:31;;;;;;;8.77;8.07;;;19.50;99.90;;;;;;5074428;28;20375;-49
2021/07/28 02:47:58;;;;;;;9.43;8.52;;;19.50;99.90;;;;;;5074482;28;20208;-48
2021/07/28 02:50:28;;;;;;;10.18;9.35;;;19.50;99.90;;;;;;5074644;28;20399;-46
2021/07/28 02:52:56;;;;;;;8.77;7.95;;;19.40;99.90;;;;;;5074467;28;20290;-47
2021/07/28 02:55:23;;;;;;;9.55;8.60;;;19.40;99.90;;;;;;5074404;28;20298;-46
2021/07/28 02:57:51;;;;;;;9.20;8.38;;;19.40;99.90;;;;;;5074202;28;20290;-46
2021/07/28 03:00:19;;;;;;;10.50;9.50;;;19.40;99.90;;;;;;5074343;28;20310;-49
2021/07/28 03:02:47;;;;;;;8.93;8.13;;;19.40;99.90;;;;;;5074436;28;20294;-49
2021/07/28 03:05:15;;;;;;;9.65;8.75;;;19.40;99.90;;;;;;5074141;28;20204;-48
2021/07/28 03:07:44;;;;;;;10.38;9.27;;;19.40;99.90;;;;;;5073993;28;20211;-49
2021/07/28 03:10:13;;;;;;;10.07;9.18;;;19.30;99.90;;;;;;5074124;28;20203;-49
2021/07/28 03:12:41;;;;;;;9.05;8.27;;;19.30;99.90;;;;;;5073976;28;20344;-48
2021/07/28 03:15:09;;;;;;;8.85;8.05;;;19.30;99.90;;;;;;5074200;28;20298;-48
2021/07/28 03:17:37;;;;;;;10.20;8.27;;;19.30;99.90;;;;;;5073969;28;20214;-46
2021/07/28 03:20:06;;;;;;;8.20;7.40;;;19.30;99.90;;;;;;5073918;28;20601;-45
2021/07/28 03:22:34;;;;;;;9.90;8.07;;;19.30;99.90;;;;;;5073814;28;20261;-46
2021/07/28 03:25:04;;;;;;;9.73;8.75;;;19.30;99.90;;;;;;5073711;28;20215;-46
2021/07/28 03:27:32;;;;;;;8.98;8.13;;;19.30;99.90;;;;;;5073779;28;20762;-45
2021/07/28 03:30:00;;;;;;;8.48;7.70;;;19.30;99.90;;;;;;5073653;28;20693;-46
2021/07/28 03:32:28;;;;;;;10.48;8.45;;;19.30;99.90;;;;;;5073567;28;20204;-46
2021/07/28 03:34:55;;;;;;;8.75;7.95;;;19.30;99.90;;;;;;5073654;28;20273;-46
2021/07/28 03:37:23;;;;;;;8.30;7.60;;;19.30;99.90;;;;;;5073428;28;20211;-50
2021/07/28 03:40:00;;;;;;;8.07;7.38;;;19.30;99.90;;;;;;5073709;28;20192;-51
2021/07/28 03:42:30;;;;;;;9.25;8.35;;;19.30;99.90;;;;;;5073507;28;20226;-46
2021/07/28 03:44:58;;;;;;;8.10;7.40;;;19.30;99.90;;;;;;5073226;28;20295;-46
2021/07/28 03:47:27;;;;;;;8.90;7.80;;;19.30;99.90;;;;;;5073382;28;20231;-48
2021/07/28 03:49:55;;;;;;;8.13;7.32;;;19.30;99.90;;;;;;5073208;28;20211;-52
2021/07/28 03:52:23;;;;;;;8.55;7.65;;;19.30;99.90;;;;;;5073188;28;20294;-48
2021/07/28 03:54:51;;;;;;;8.85;7.82;;;19.30;99.90;;;;;;5073366;28;20302;-50
2021/07/28 03:57:19;;;;;;;8.15;7.43;;;19.30;99.90;;;;;;5073206;28;20302;-48
2021/07/28 03:59:49;;;;;;;7.55;6.85;;;19.30;99.90;;;;;;5073038;28;20302;-50
2021/07/28 04:02:17;;;;;;;7.80;7.07;;;19.30;99.90;;;;;;5072651;28;20226;-50
2021/07/28 04:04:45;;;;;;;8.55;7.85;;;19.30;99.90;;;;;;5072435;28;20215;-47
2021/07/28 04:07:13;;;;;;;7.63;6.88;;;19.30;99.90;;;;;;5072761;28;20293;-47
2021/07/28 04:09:41;;;;;;;7.35;6.68;;;19.30;99.90;;;;;;5072868;28;20645;-47
2021/07/28 04:12:09;;;;;;;8.30;6.68;;;19.20;99.90;;;;;;5072699;28;20230;-51
2021/07/28 04:14:37;;;;;;;7.18;6.55;;;19.20;99.90;;;;;;5072614;28;20230;-46
2021/07/28 04:17:07;;;;;;;8.48;7.30;;;19.20;99.90;;;;;;5072330;28;20238;-46
2021/07/28 04:19:35;;;;;;;7.47;6.88;;;19.20;99.90;;;;;;5071762;28;20238;-47
2021/07/28 04:22:03;;;;;;;7.78;6.93;;;19.20;99.90;;;;;;5072400;28;20310;-50
2021/07/28 04:24:33;;;;;;;7.80;7.00;;;19.20;99.90;;;;;;5072414;28;20298;-51
2021/07/28 04:27:01;;;;;;;9.05;8.25;;;19.20;99.90;;;;;;5072520;28;20207;-47
2021/07/28 04:29:29;;;;;;;8.07;7.38;;;19.20;99.90;;;;;;5072183;28;20667;-48
2021/07/28 04:31:57;;;;;;;8.48;7.60;;;19.20;99.90;;;;;;5072329;28;20282;-49
2021/07/28 04:34:26;;;;;;;8.23;7.30;;;19.20;99.90;;;;;;5072360;28;20253;-47
2021/07/28 04:36:54;;;;;;;7.75;7.05;;;19.20;99.90;;;;;;5072573;28;20218;-48
2021/07/28 04:39:22;;;;;;;7.95;7.25;;;19.20;99.90;;;;;;5072409;28;20242;-48
2021/07/28 04:41:50;;;;;;;8.18;7.35;;;19.20;99.90;;;;;;5072220;28;20661;-51
2021/07/28 04:44:18;;;;;;;8.38;7.63;;;19.20;99.90;;;;;;5072226;28;20234;-49
2021/07/28 04:46:46;;;;;;;7.85;6.93;;;19.30;99.90;;;;;;5072402;28;20357;-47
2021/07/28 04:49:14;;;;;;;7.63;6.93;;;19.30;99.90;;;;;;5072287;28;20233;-47
2021/07/28 04:51:43;;;;;;;9.73;6.43;;;19.30;99.90;;;;;;5072227;28;20290;-49
2021/07/28 04:54:11;;;;;;;15.15;8.48;;;19.30;99.90;;;;;;5072009;28;20247;-50
2021/07/28 04:56:38;;;;;;;8.65;7.57;;;19.30;99.90;;;;;;5072078;28;20663;-49
2021/07/28 04:59:06;;;;;;;10.32;7.47;;;19.40;99.90;;;;;;5072333;28;20207;-50
2021/07/28 05:01:34;;;;;;;7.40;6.70;;;19.40;99.90;;;;;;5072085;28;20227;-49
2021/07/28 05:04:03;;;;;;;7.50;6.90;;;19.40;99.90;;;;;;5072113;28;20304;-50
2021/07/28 05:06:31;;;;;;;7.97;7.18;;;19.40;99.90;;;;;;5071998;28;20211;-48
2021/07/28 05:09:00;;;;;;;7.78;7.07;;;19.40;99.90;;;;;;5071984;28;20222;-49
2021/07/28 05:11:28;;;;;;;8.27;7.55;;;19.40;99.90;;;;;;5071977;28;20289;-48
2021/07/28 05:13:56;;;;;;;7.50;6.68;;;19.40;99.90;;;;;;5071902;28;20293;-48
2021/07/28 05:16:23;;;;;;;7.30;6.70;;;19.40;99.90;;;;;;5071942;28;20290;-50
2021/07/28 05:18:51;;;;;;;8.65;6.85;;;19.40;99.90;;;;;;5071789;28;20292;-49
2021/07/28 05:21:19;;;;;;;7.10;6.50;;;19.40;99.90;;;;;;5071952;28;20580;-49
2021/07/28 05:23:47;;;;;;;7.32;6.63;;;19.40;99.90;;;;;;5071644;28;20681;-52
2021/07/28 05:26:16;;;;;;;7.85;6.88;;;19.40;99.90;;;;;;5071694;28;20318;-50
2021/07/28 05:28:44;;;;;;;8.63;7.35;;;19.40;99.90;;;;;;5071918;28;20218;-53
2021/07/28 05:31:13;;;;;;;7.18;6.47;;;19.40;99.90;;;;;;5073560;28;20306;-49
2021/07/28 05:33:41;;;;;;;9.98;7.60;;;19.40;99.90;;;;;;5075865;28;20209;-51
2021/07/28 05:36:09;;;;;;;8.60;7.30;;;19.50;99.90;;;;;;5075736;28;20299;-49
2021/07/28 05:38:37;;;;;;;7.35;6.45;;;19.60;99.90;;;;;;5075338;28;20599;-48
2021/07/28 05:41:05;;;;;;;10.23;7.35;;;19.60;99.90;;;;;;5075096;28;20314;-47
2021/07/28 05:43:34;;;;;;;9.18;7.60;;;19.70;99.90;;;;;;5075135;28;20318;-49
2021/07/28 05:46:02;;;;;;;7.63;7.03;;;19.80;99.90;;;;;;5075144;28;20254;-47
2021/07/28 05:48:32;;;;;;;8.20;7.50;;;19.80;99.90;;;;;;5075111;28;20207;-50
2021/07/28 05:51:00;;;;;;;8.63;7.78;;;19.90;99.90;;;;;;5074961;28;20574;-49
2021/07/28 05:53:28;;;;;;;8.35;7.13;;;19.90;99.90;;;;;;5075105;28;20279;-47
2021/07/28 05:55:56;;;;;;;8.68;7.78;;;20.00;99.90;;;;;;5075027;28;20217;-45
2021/07/28 05:58:24;;;;;;;8.55;7.30;;;20.00;99.90;;;;;;5075006;28;20297;-45
2021/07/28 06:00:53;;;;;;;8.35;7.55;;;20.00;99.90;;;;;;5074917;28;20269;-46
2021/07/28 06:03:21;;;;;;;8.30;7.53;;;19.90;99.90;;;;;;5074747;28;20709;-44
2021/07/28 06:05:49;;;;;;;10.43;8.88;;;19.90;99.90;;;;;;5074882;28;20224;-47
2021/07/28 06:08:17;;;;;;;9.27;8.38;;;19.80;99.90;;;;;;5074738;28;20302;-50
2021/07/28 06:10:47;;;;;;;9.50;8.60;;;19.80;99.90;;;;;;5074598;28;20298;-49
2021/07/28 06:13:15;;;;;;;9.75;8.85;;;19.90;99.90;;;;;;5075112;28;20204;-50
2021/07/28 06:15:46;;;;;;;8.95;8.15;;;20.10;99.90;;;;;;5074982;28;20376;-47
2021/07/28 06:18:16;;;;;;;8.85;8.05;;;20.20;99.90;;;;;;5074670;28;20317;-49
2021/07/28 06:20:44;;;;;;;9.75;8.13;;;20.30;99.90;;;;;;5074603;28;20293;-48
2021/07/28 06:23:11;;;;;;;9.27;8.48;;;20.40;99.90;;;;;;5074546;28;20317;-52
2021/07/28 06:25:39;;;;;;;8.85;7.95;;;20.50;99.90;;;;;;5074767;28;20207;-51
2021/07/28 06:28:07;;;;;;;12.40;9.50;;;20.50;99.90;;;;;;5074665;28;20302;-51
2021/07/28 06:30:36;;;;;;;8.60;7.90;;;20.50;99.90;;;;;;5074593;28;20217;-50
2021/07/28 06:33:04;;;;;;;11.05;9.27;;;20.50;99.90;;;;;;5074668;28;20227;-49
2021/07/28 06:35:34;;;;;;;9.00;8.10;;;20.40;99.90;;;;;;5074607;28;20649;-50
2021/07/28 06:38:02;;;;;;;10.35;9.02;;;20.40;99.90;;;;;;5074352;28;20230;-48
2021/07/28 06:40:30;;;;;;;9.25;8.35;;;20.30;99.90;;;;;;5074224;28;20299;-48
2021/07/28 06:42:58;;;;;;;11.80;9.40;;;20.30;99.90;;;;;;5073466;28;20234;-51
2021/07/28 06:45:26;;;;;;;9.23;8.07;;;20.30;99.90;;;;;;5074313;28;20294;-48
2021/07/28 06:47:54;;;;;;;9.50;8.60;;;20.20;99.90;;;;;;5074401;28;20257;-47
2021/07/28 06:50:22;;;;;;;9.52;8.73;;;20.20;99.90;;;;;;5074303;28;20318;-49
2021/07/28 06:52:51;;;;;;;9.02;8.32;;;20.20;99.90;;;;;;5074042;28;20299;-51
2021/07/28 06:55:19;;;;;;;9.18;8.27;;;20.20;99.90;;;;;;5074203;28;20623;-47
2021/07/28 06:57:47;;;;;;;11.05;9.57;;;20.20;99.90;;;;;;5073943;28;20246;-49
2021/07/28 07:00:16;;;;;;;10.25;9.25;;;20.20;99.90;;;;;;5074132;28;20208;-51
2021/07/28 07:02:44;;;;;;;9.52;8.63;;;20.20;99.90;;;;;;5073785;28;20318;-48
2021/07/28 07:05:12;;;;;;;9.75;8.95;;;20.30;99.90;;;;;;5074045;28;20298;-53
2021/07/28 07:07:40;;;;;;;10.57;9.32;;;20.30;99.90;;;;;;5073833;28;20286;-50
2021/07/28 07:10:11;;;;;;;9.43;8.63;;;20.30;99.90;;;;;;5073561;28;20295;-50
2021/07/28 07:12:39;;;;;;;10.30;9.35;;;20.30;99.90;;;;;;5073871;28;20219;-51
2021/07/28 07:15:08;;;;;;;11.55;9.20;;;20.30;99.90;;;;;;5073726;28;20636;-53
2021/07/28 07:17:36;;;;;;;11.70;10.02;;;20.30;99.90;;;;;;5073399;28;20297;-48
2021/07/28 07:20:09;;;;;;;10.45;9.52;;;20.20;99.90;;;;;;5073728;28;20238;-49
2021/07/28 07:22:37;;;;;;;10.85;9.82;;;20.20;99.90;;;;;;5073367;28;20235;-50
2021/07/28 07:25:06;;;;;;;12.15;9.73;;;20.20;99.90;;;;;;5073525;28;20306;-47
2021/07/28 07:27:37;;;;;;;11.43;10.15;;;20.30;99.90;;;;;;5073239;28;20678;-48
2021/07/28 07:30:06;;;;;;;10.38;9.25;;;20.30;99.90;;;;;;5073546;28;20298;-49
2021/07/28 07:32:34;;;;;;;11.15;9.18;;;20.40;99.90;;;;;;5073430;28;20250;-49
2021/07/28 07:35:02;;;;;;;12.52;10.25;;;20.50;99.90;;;;;;5073406;28;20402;-50
2021/07/28 07:37:30;;;;;;;10.80;9.70;;;20.60;99.90;;;;;;5073395;28;20439;-52
2021/07/28 07:39:59;;;;;;;10.45;9.48;;;20.60;99.90;;;;;;5073324;28;20677;-51
2021/07/28 07:42:27;;;;;;;10.65;9.65;;;20.50;99.90;;;;;;5073155;28;20314;-47
2021/07/28 07:44:58;;;;;;;12.48;11.25;;;20.50;99.90;;;;;;5073328;28;20218;-49
2021/07/28 07:47:26;;;;;;;11.55;10.43;;;20.40;99.90;;;;;;5073241;28;20213;-50
2021/07/28 07:49:54;;;;;;;10.52;9.52;;;20.40;99.90;;;;;;5073094;28;20218;-53
2021/07/28 07:52:22;;;;;;;11.82;10.73;;;20.30;99.90;;;;;;5073304;28;20218;-51
2021/07/28 07:54:50;;;;;;;11.52;10.32;;;20.20;99.90;;;;;;5072263;28;20285;-51
2021/07/28 07:57:18;;;;;;;13.43;11.45;;;20.10;99.90;;;;;;5072920;28;20302;-50
2021/07/28 07:59:46;;;;;;;13.93;11.88;;;20.10;99.90;;;;;;5072991;28;20242;-53
2021/07/28 08:02:16;;;;;;;12.73;11.50;;;20.10;99.90;;;;;;5072840;28;20299;-50
2021/07/28 08:04:44;;;;;;;12.02;10.85;;;20.10;99.90;;;;;;5073000;28;20241;-48
2021/07/28 08:07:11;;;;;;;12.95;11.85;;;20.00;99.90;;;;;;5072984;28;20221;-51
2021/07/28 08:09:39;;;;;;;13.07;11.70;;;20.00;99.90;;;;;;5072811;28;20309;-49
2021/07/28 08:12:07;;;;;;;13.18;11.57;;;20.00;99.90;;;;;;5072773;28;20203;-49
2021/07/28 08:14:35;;;;;;;12.82;11.73;;;20.00;99.90;;;;;;5072603;28;20254;-50
2021/07/28 08:17:04;;;;;;;12.68;11.55;;;19.90;99.90;;;;;;5072680;28;20318;-47
2021/07/28 08:19:33;;;;;;;13.88;12.20;;;19.90;99.90;;;;;;5072424;28;20333;-50
2021/07/28 08:22:02;;;;;;;13.88;12.50;;;19.90;99.90;;;;;;5072642;28;20219;-49
2021/07/28 08:24:30;;;;;;;16.65;13.13;;;19.90;99.90;;;;;;5072595;28;20231;-48
2021/07/28 08:26:58;;;;;;;13.30;12.07;;;19.90;99.90;;;;;;5072337;28;20849;-51
2021/07/28 08:29:26;;;;;;;15.27;13.98;;;19.90;99.90;;;;;;5072636;28;20324;-50
2021/07/28 08:31:53;;;;;;;15.13;13.63;;;20.00;99.90;;;;;;5072504;28;20211;-49
2021/07/28 08:34:22;;;;;;;14.55;13.05;;;20.00;99.90;;;;;;5072289;28;20728;-49
2021/07/28 08:36:51;;;;;;;15.38;13.88;;;20.00;99.90;;;;;;5072462;28;20651;-51
2021/07/28 08:39:19;;;;;;;14.55;13.10;;;20.00;99.90;;;;;;5072188;28;20746;-49
2021/07/28 08:41:49;;;;;;;15.23;13.82;;;19.90;99.90;;;;;;5072345;28;20211;-52
2021/07/28 08:44:20;;;;;;;15.13;13.63;;;19.90;99.90;;;;;;5072026;28;20321;-47
2021/07/28 08:46:49;;;;;;;14.93;13.50;;;19.80;99.90;;;;;;5072101;28;20290;-47
2021/07/28 08:49:18;;;;;;;15.32;13.85;;;19.80;99.90;;;;;;5072188;28;20211;-50
2021/07/28 08:51:46;;;;;;;16.48;14.90;;;19.70;99.90;;;;;;5072230;28;20255;-48
2021/07/28 08:54:15;;;;;;;15.77;14.30;;;19.70;99.90;;;;;;5072010;28;20215;-50
2021/07/28 08:56:43;;;;;;;16.17;14.55;;;19.60;99.90;;;;;;5072196;28;20212;-47
2021/07/28 08:59:25;;;;;;;14.75;13.30;;;19.50;99.90;;;;;;5072297;28;20280;-48
2021/07/28 09:01:53;;;;;;;14.80;13.40;;;19.40;99.90;;;;;;5071877;28;20210;-48
2021/07/28 09:04:22;;;;;;;15.20;13.80;;;19.40;99.90;;;;;;5071718;28;20743;-48
2021/07/28 09:06:50;;;;;;;18.20;14.77;;;19.30;99.90;;;;;;5071935;28;20208;-49
2021/07/28 09:09:20;;;;;;;16.25;14.65;;;19.30;99.90;;;;;;5072171;28;20208;-48
2021/07/28 09:11:52;;;;;;;20.15;15.43;;;19.30;99.90;;;;;;5072082;28;20309;-49
2021/07/28 09:14:23;;;;;;;14.40;13.05;;;19.30;99.90;;;;;;5071886;28;20718;-50
2021/07/28 09:16:51;;;;;;;16.10;14.40;;;19.40;99.90;;;;;;5071935;28;20211;-50
2021/07/28 09:19:41;;;;;;;15.73;14.23;;;19.40;99.90;;;;;;5071648;28;20278;-51
2021/07/28 09:22:10;;;;;;;15.98;14.32;;;19.50;99.90;;;;;;5071979;28;20299;-49
2021/07/28 09:24:41;;;;;;;15.60;13.95;;;19.50;99.90;;;;;;5071847;28;20257;-48
2021/07/28 09:27:30;;;;;;;15.20;13.52;;;19.50;99.90;;;;;;5071883;28;20243;-50
2021/07/28 09:29:58;;;;;;;15.93;14.52;;;19.50;99.90;;;;;;5071670;28;20207;-47
2021/07/28 09:32:26;;;;;;;15.23;12.80;;;19.50;99.90;;;;;;5071759;28;20250;-49
2021/07/28 09:34:55;;;;;;;15.98;13.80;;;19.70;99.90;;;;;;5071424;28;20215;-51
2021/07/28 09:37:24;;;;;;;15.93;14.50;;;19.80;99.90;;;;;;5071790;28;20551;-48
2021/07/28 09:39:54;;;;;;;12.80;11.52;;;20.00;99.90;;;;;;5071664;28;20257;-51
2021/07/28 09:42:28;;;;;;;12.20;10.98;;;20.20;99.90;;;;;;5071806;28;20282;-49
2021/07/28 09:44:59;;;;;;;12.07;10.98;;;20.30;99.90;;;;;;5071496;28;20222;-51
2021/07/28 09:47:38;;;;;;;14.70;12.30;;;20.30;99.90;;;;;;5071609;28;20235;-48
2021/07/28 09:50:15;;;;;;;13.27;11.98;;;20.40;99.90;;;;;;5071548;28;20726;-49
2021/07/28 09:52:43;;;;;;;12.30;11.10;;;20.40;99.90;;;;;;5071550;28;20236;-47
2021/07/28 09:55:27;;;;;;;13.85;12.40;;;20.40;99.90;;;;;;5071833;28;20287;-48
2021/07/28 09:57:57;;;;;;;8.75;7.93;;;20.40;99.90;;;;;;5071567;28;20528;-49
2021/07/28 10:00:25;;;;;;;11.30;10.40;;;20.30;99.90;;;;;;5071578;28;20593;-50
2021/07/28 10:02:53;;;;;;;10.55;9.48;;;20.20;99.90;;;;;;5071416;28;20290;-49
2021/07/28 10:05:22;;;;;;;12.15;10.95;;;20.10;99.90;;;;;;5071618;28;20293;-48
2021/07/28 10:07:52;;;;;;;10.77;9.77;;;20.10;99.90;;;;;;5071553;28;20298;-52
2021/07/28 10:10:21;;;;;;;11.93;10.77;;;20.10;99.90;;;;;;5071238;28;20246;-53
2021/07/28 10:12:51;;;;;;;10.65;9.60;;;20.10;99.90;;;;;;5071334;28;20613;-49
2021/07/28 10:15:20;;;;;;;11.80;10.80;;;20.20;99.90;;;;;;5071452;28;20550;-49
2021/07/28 10:17:49;;;;;;;11.63;9.57;;;20.20;99.90;;;;;;5073432;28;20664;-51
2021/07/28 10:20:17;;;;;;;9.10;8.30;;;20.20;99.90;;;;;;5074954;28;20689;-49
2021/07/28 10:22:45;;;;;;;8.35;7.57;;;20.20;99.90;;;;;;5075028;28;20555;-51
2021/07/28 10:25:15;;;;;;;8.25;7.45;;;20.20;99.90;;;;;;5074686;28;20231;-53
2021/07/28 10:27:46;;;;;;;8.35;7.55;;;20.10;99.90;;;;;;5074818;28;20354;-49
2021/07/28 10:30:16;;;;;;;8.07;7.38;;;19.90;99.90;;;;;;5074483;28;20583;-47
2021/07/28 10:32:45;;;;;;;8.60;7.80;;;19.80;99.90;;;;;;5074844;28;20306;-53
2021/07/28 10:35:25;;;;;;;8.02;6.63;;;19.70;99.90;;;;;;5074318;28;20237;-50
2021/07/28 10:37:54;;;;;;;8.48;7.78;;;19.60;99.90;;;;;;5074254;28;20285;-48
2021/07/28 10:40:50;;;;;;;9.05;8.25;;;19.50;99.90;;;;;;5074414;28;20242;-51
2021/07/28 10:43:18;;;;;;;8.40;7.43;;;19.40;99.90;;;;;;5074420;28;20762;-53
2021/07/28 10:45:58;;;;;;;8.10;7.28;;;19.40;99.90;;;;;;5074391;28;20237;-49
2021/07/28 10:48:59;;;;;;;7.85;7.15;;;19.40;99.90;;;;;;5074399;28;20207;-50
2021/07/28 10:51:53;;;;;;;9.75;7.43;;;19.40;99.90;;;;;;5074419;28;20297;-51
2021/07/28 10:54:54;;;;;;;7.65;6.95;;;19.40;99.90;;;;;;5069150;28;20233;-50
2021/07/28 10:58:05;;;;;;;8.10;7.15;;;19.40;99.90;;;;;;5067180;28;20256;-52
2021/07/28 11:01:04;;;;;;;11.05;7.70;;;19.40;99.90;;;;;;5074184;28;20300;-51
2021/07/28 11:03:38;;;;;;;8.10;7.30;;;19.40;99.90;;;;;;5074021;28;20215;-50
2021/07/28 11:06:23;;;;;;;7.32;6.60;;;19.50;99.90;;;;;;5074033;28;20231;-50
2021/07/28 11:08:52;;;;;;;7.70;7.00;;;19.50;99.90;;;;;;5073994;28;20298;-53
2021/07/28 11:11:27;;;;;;;11.35;8.55;;;19.60;99.90;;;;;;5073782;28;20301;-49
2021/07/28 11:14:00;;;;;;;7.70;6.93;;;19.60;99.90;;;;;;5073833;28;20203;-47
2021/07/28 11:16:30;;;;;;;8.82;6.72;;;19.70;99.90;;;;;;5074002;28;20203;-47
2021/07/28 11:18:58;;;;;;;8.48;6.97;;;19.70;99.90;;;;;;5073564;28;20239;-47
2021/07/28 11:21:28;;;;;;;8.85;7.45;;;19.70;99.90;;;;;;5073783;28;20207;-47
2021/07/28 11:24:01;;;;;;;8.05;7.25;;;19.90;99.90;;;;;;5073758;28;20246;-49
2021/07/28 11:26:31;;;;;;;7.57;6.93;;;19.90;99.90;;;;;;5073552;28;20314;-47
2021/07/28 11:29:01;;;;;;;7.88;7.10;;;20.00;99.90;;;;;;5073794;28;20286;-47
2021/07/28 11:31:36;;;;;;;7.82;7.10;;;20.10;99.90;;;;;;5073525;28;20657;-47
2021/07/28 11:34:10;;;;;;;7.28;6.68;;;20.10;99.90;;;;;;5073495;28;20241;-50
2021/07/28 11:36:40;;;;;;;7.95;7.25;;;20.20;99.90;;;;;;5073469;28;20235;-48
2021/07/28 11:39:10;;;;;;;7.90;7.20;;;20.30;99.90;;;;;;5073416;28;20207;-46
2021/07/28 11:41:38;;;;;;;8.55;6.95;;;20.40;99.90;;;;;;5073225;28;20297;-47
2021/07/28 11:44:07;;;;;;;8.55;7.63;;;20.60;99.90;;;;;;5073131;28;20718;-48
2021/07/28 11:46:36;;;;;;;7.53;6.50;;;20.70;99.90;;;;;;5073090;28;20389;-48
2021/07/28 11:49:05;;;;;;;6.78;6.18;;;20.70;99.90;;;;;;5073154;28;20214;-50
2021/07/28 11:51:38;;;;;;;7.45;5.85;;;20.70;99.90;;;;;;5073428;28;20231;-47
2021/07/28 11:54:11;;;;;;;7.00;6.30;;;20.80;99.90;;;;;;5073154;28;20690;-47
2021/07/28 11:56:45;;;;;;;7.90;6.20;;;20.80;99.90;;;;;;5072915;28;20557;-51
2021/07/28 11:59:14;;;;;;;6.10;5.50;;;20.70;99.90;;;;;;5073024;28;20293;-47
2021/07/28 12:01:53;;;;;;;7.70;5.50;;;20.80;99.90;;;;;;5073044;28;20268;-51
2021/07/28 12:04:24;;;;;;;5.72;5.20;;;20.80;99.90;;;;;;5072804;28;20215;-49
2021/07/28 12:07:09;;;;;;;5.35;4.85;;;20.90;99.90;;;;;;5072861;28;20266;-52
2021/07/28 12:09:37;;;;;;;5.80;4.95;;;21.00;99.90;;;;;;5072818;28;20235;-49
2021/07/28 12:12:05;;;;;;;4.93;4.43;;;21.20;99.90;;;;;;5072883;28;20308;-50
2021/07/28 12:14:39;;;;;;;5.60;4.82;;;21.30;99.90;;;;;;5072987;28;20662;-48
2021/07/28 12:17:23;;;;;;;5.25;4.72;;;21.30;99.90;;;;;;5072633;28;20666;-51
2021/07/28 12:19:56;;;;;;;5.93;4.88;;;21.10;99.90;;;;;;5072522;28;20341;-51
2021/07/28 12:22:29;;;;;;;5.50;4.93;;;20.90;99.90;;;;;;5072644;28;20220;-52
2021/07/28 12:25:14;;;;;;;4.82;4.38;;;20.70;99.90;;;;;;5072529;28;20309;-52
2021/07/28 12:28:00;;;;;;;4.80;4.40;;;20.60;99.90;;;;;;5072709;28;20246;-49
2021/07/28 12:30:31;;;;;;;5.95;5.35;;;20.50;99.90;;;;;;5072653;28;20307;-49
2021/07/28 12:33:06;;;;;;;8.35;7.55;;;20.50;99.90;;;;;;5072334;28;20765;-47
2021/07/28 12:35:41;;;;;;;6.07;5.03;;;20.50;99.90;;;;;;5072305;28;20207;-49
2021/07/28 12:38:21;;;;;;;5.70;5.20;;;20.40;99.90;;;;;;5072370;28;20742;-49
2021/07/28 12:40:57;;;;;;;5.80;5.30;;;20.40;99.90;;;;;;5071861;28;20206;-49
2021/07/28 12:43:27;;;;;;;6.53;5.95;;;20.30;99.90;;;;;;5072096;28;20243;-49
2021/07/28 12:45:57;;;;;;;6.30;5.80;;;20.30;99.90;;;;;;5072267;28;20310;-47
2021/07/28 12:48:28;;;;;;;6.50;5.88;;;20.30;99.90;;;;;;5072285;28;20204;-51
2021/07/28 12:50:57;;;;;;;6.97;6.28;;;20.30;99.90;;;;;;5072244;28;20221;-47
2021/07/28 12:53:26;;;;;;;7.03;6.43;;;20.30;99.90;;;;;;5072222;28;20213;-51
2021/07/28 12:55:54;;;;;;;6.47;5.80;;;20.30;99.90;;;;;;5072146;28;20245;-49
2021/07/28 12:58:22;;;;;;;7.07;6.47;;;20.40;99.90;;;;;;5072266;28;20239;-51